sensor_id;sensor_type;location;lat;lon;timestamp;pressure;altitude;pressure_sealevel;temperature;humidity
77881;BME280;67077;50.298;18.996;2023-12-04T00:01:42;98554.25;;;-4.02;100.00
77881;BME280;67077;50.298;18.996;2023-12-04T00:04:09;98554.17;;;-4.06;100.00
77881;BME280;67077;50.298;18.996;2023-12-04T00:06:36;98546.47;;;-4.06;100.00
77881;BME280;67077;50.298;18.996;2023-12-04T00:09:03;98546.14;;;-4.04;100.00
77881;BME280;67077;50.298;18.996;2023-12-04T00:11:29;98545.88;;;-4.03;100.00
77881;BME280;67077;50.298;18.996;2023-12-04T00:13:56;98547.43;;;-4.03;100.00
77881;BME280;67077;50.298;18.996;2023-12-04T00:16:23;98546.07;;;-4.03;100.00
77881;BME280;67077;50.298;18.996;2023-12-04T00:18:50;98547.28;;;-4.07;100.00
77881;BME280;67077;50.298;18.996;2023-12-04T00:21:17;98547.16;;;-4.15;100.00
77881;BME280;67077;50.298;18.996;2023-12-04T00:23:43;98547.17;;;-4.18;100.00
77881;BME280;67077;50.298;18.996;2023-12-04T00:26:11;98551.02;;;-4.17;100.00
77881;BME280;67077;50.298;18.996;2023-12-04T00:28:39;98552.11;;;-4.18;100.00
77881;BME280;67077;50.298;18.996;2023-12-04T00:31:06;98555.21;;;-4.19;100.00
77881;BME280;67077;50.298;18.996;2023-12-04T00:33:33;98556.14;;;-4.20;100.00
77881;BME280;67077;50.298;18.996;2023-12-04T00:35:59;98555.19;;;-4.22;100.00
77881;BME280;67077;50.298;18.996;2023-12-04T00:38:26;98552.85;;;-4.24;100.00
77881;BME280;67077;50.298;18.996;2023-12-04T00:40:53;98555.24;;;-4.27;100.00
77881;BME280;67077;50.298;18.996;2023-12-04T00:43:20;98551.84;;;-4.33;100.00
77881;BME280;67077;50.298;18.996;2023-12-04T00:45:46;98554.73;;;-4.39;100.00
77881;BME280;67077;50.298;18.996;2023-12-04T00:48:13;98558.45;;;-4.44;100.00
77881;BME280;67077;50.298;18.996;2023-12-04T00:50:39;98565.39;;;-4.50;100.00
77881;BME280;67077;50.298;18.996;2023-12-04T00:53:06;98570.37;;;-4.51;100.00
77881;BME280;67077;50.298;18.996;2023-12-04T00:55:33;98568.13;;;-4.49;100.00
77881;BME280;67077;50.298;18.996;2023-12-04T00:57:59;98570.75;;;-4.44;100.00
77881;BME280;67077;50.298;18.996;2023-12-04T01:00:26;98573.55;;;-4.39;100.00
77881;BME280;67077;50.298;18.996;2023-12-04T01:02:55;98572.84;;;-4.34;100.00
77881;BME280;67077;50.298;18.996;2023-12-04T01:05:25;98576.67;;;-4.29;100.00
77881;BME280;67077;50.298;18.996;2023-12-04T01:07:56;98575.84;;;-4.23;100.00
77881;BME280;67077;50.298;18.996;2023-12-04T01:10:24;98574.65;;;-4.18;100.00
77881;BME280;67077;50.298;18.996;2023-12-04T01:12:53;98573.98;;;-4.14;100.00
77881;BME280;67077;50.298;18.996;2023-12-04T01:15:34;98570.61;;;-4.11;100.00
77881;BME280;67077;50.298;18.996;2023-12-04T01:18:03;98572.60;;;-4.12;100.00
77881;BME280;67077;50.298;18.996;2023-12-04T01:20:29;98574.98;;;-4.15;100.00
77881;BME280;67077;50.298;18.996;2023-12-04T01:22:56;98576.66;;;-4.22;100.00
77881;BME280;67077;50.298;18.996;2023-12-04T01:25:23;98576.03;;;-4.25;100.00
77881;BME280;67077;50.298;18.996;2023-12-04T01:27:50;98578.14;;;-4.27;100.00
77881;BME280;67077;50.298;18.996;2023-12-04T01:30:17;98576.83;;;-4.31;100.00
77881;BME280;67077;50.298;18.996;2023-12-04T01:32:43;98581.64;;;-4.30;100.00
77881;BME280;67077;50.298;18.996;2023-12-04T01:35:10;98578.90;;;-4.31;100.00
77881;BME280;67077;50.298;18.996;2023-12-04T01:37:37;98575.52;;;-4.35;100.00
77881;BME280;67077;50.298;18.996;2023-12-04T01:40:05;98577.76;;;-4.36;100.00
77881;BME280;67077;50.298;18.996;2023-12-04T01:42:33;98572.84;;;-4.39;100.00
77881;BME280;67077;50.298;18.996;2023-12-04T01:44:59;98573.15;;;-4.43;100.00
77881;BME280;67077;50.298;18.996;2023-12-04T01:47:26;98574.49;;;-4.49;100.00
77881;BME280;67077;50.298;18.996;2023-12-04T01:49:53;98577.40;;;-4.60;100.00
77881;BME280;67077;50.298;18.996;2023-12-04T01:52:20;98574.13;;;-4.68;100.00
77881;BME280;67077;50.298;18.996;2023-12-04T01:54:46;98575.39;;;-4.76;100.00
77881;BME280;67077;50.298;18.996;2023-12-04T01:57:13;98570.71;;;-4.82;100.00
77881;BME280;67077;50.298;18.996;2023-12-04T01:59:40;98576.36;;;-4.92;100.00
77881;BME280;67077;50.298;18.996;2023-12-04T02:02:07;98577.26;;;-5.06;100.00
77881;BME280;67077;50.298;18.996;2023-12-04T02:04:34;98580.17;;;-5.15;100.00
77881;BME280;67077;50.298;18.996;2023-12-04T02:07:00;98580.00;;;-5.18;100.00
77881;BME280;67077;50.298;18.996;2023-12-04T02:09:27;98575.30;;;-5.21;100.00
77881;BME280;67077;50.298;18.996;2023-12-04T02:11:55;98577.05;;;-5.26;100.00
77881;BME280;67077;50.298;18.996;2023-12-04T02:14:22;98574.81;;;-5.31;100.00
77881;BME280;67077;50.298;18.996;2023-12-04T02:16:48;98577.02;;;-5.35;100.00
77881;BME280;67077;50.298;18.996;2023-12-04T02:19:17;98569.38;;;-5.36;100.00
77881;BME280;67077;50.298;18.996;2023-12-04T02:21:44;98567.36;;;-5.32;100.00
77881;BME280;67077;50.298;18.996;2023-12-04T02:24:11;98571.38;;;-5.32;100.00
77881;BME280;67077;50.298;18.996;2023-12-04T02:26:47;98569.29;;;-5.38;100.00
77881;BME280;67077;50.298;18.996;2023-12-04T02:29:15;98569.30;;;-5.41;100.00
77881;BME280;67077;50.298;18.996;2023-12-04T02:31:45;98571.02;;;-5.47;100.00
77881;BME280;67077;50.298;18.996;2023-12-04T02:34:13;98570.84;;;-5.50;100.00
77881;BME280;67077;50.298;18.996;2023-12-04T02:36:44;98570.73;;;-5.51;100.00
77881;BME280;67077;50.298;18.996;2023-12-04T02:39:11;98565.06;;;-5.50;100.00
77881;BME280;67077;50.298;18.996;2023-12-04T02:41:39;98571.30;;;-5.54;100.00
77881;BME280;67077;50.298;18.996;2023-12-04T02:44:06;98578.40;;;-5.53;100.00
77881;BME280;67077;50.298;18.996;2023-12-04T02:46:33;98577.65;;;-5.52;100.00
77881;BME280;67077;50.298;18.996;2023-12-04T02:48:59;98572.50;;;-5.54;100.00
77881;BME280;67077;50.298;18.996;2023-12-04T02:51:26;98570.68;;;-5.60;100.00
77881;BME280;67077;50.298;18.996;2023-12-04T02:53:53;98571.95;;;-5.58;100.00
77881;BME280;67077;50.298;18.996;2023-12-04T02:56:20;98576.65;;;-5.53;100.00
77881;BME280;67077;50.298;18.996;2023-12-04T02:58:46;98579.79;;;-5.47;100.00
77881;BME280;67077;50.298;18.996;2023-12-04T03:01:13;98583.94;;;-5.42;100.00
77881;BME280;67077;50.298;18.996;2023-12-04T03:03:40;98580.90;;;-5.33;100.00
77881;BME280;67077;50.298;18.996;2023-12-04T03:06:07;98575.81;;;-5.28;100.00
77881;BME280;67077;50.298;18.996;2023-12-04T03:08:34;98578.05;;;-5.32;100.00
77881;BME280;67077;50.298;18.996;2023-12-04T03:11:01;98574.29;;;-5.36;100.00
77881;BME280;67077;50.298;18.996;2023-12-04T03:13:29;98574.94;;;-5.46;100.00
77881;BME280;67077;50.298;18.996;2023-12-04T03:15:55;98574.84;;;-5.49;100.00
77881;BME280;67077;50.298;18.996;2023-12-04T03:18:22;98575.10;;;-5.56;100.00
77881;BME280;67077;50.298;18.996;2023-12-04T03:20:51;98569.23;;;-5.62;100.00
77881;BME280;67077;50.298;18.996;2023-12-04T03:23:18;98566.13;;;-5.63;100.00
77881;BME280;67077;50.298;18.996;2023-12-04T03:25:45;98563.26;;;-5.62;100.00
77881;BME280;67077;50.298;18.996;2023-12-04T03:28:12;98562.45;;;-5.60;100.00
77881;BME280;67077;50.298;18.996;2023-12-04T03:30:42;98563.77;;;-5.59;100.00
77881;BME280;67077;50.298;18.996;2023-12-04T03:33:12;98565.56;;;-5.57;100.00
77881;BME280;67077;50.298;18.996;2023-12-04T03:35:39;98568.51;;;-5.57;100.00
77881;BME280;67077;50.298;18.996;2023-12-04T03:38:06;98576.40;;;-5.61;100.00
77881;BME280;67077;50.298;18.996;2023-12-04T03:40:32;98579.63;;;-5.60;100.00
77881;BME280;67077;50.298;18.996;2023-12-04T03:42:59;98582.39;;;-5.67;100.00
77881;BME280;67077;50.298;18.996;2023-12-04T03:45:26;98586.23;;;-5.72;100.00
77881;BME280;67077;50.298;18.996;2023-12-04T03:47:53;98593.23;;;-5.74;100.00
77881;BME280;67077;50.298;18.996;2023-12-04T03:50:19;98595.02;;;-5.79;100.00
77881;BME280;67077;50.298;18.996;2023-12-04T03:52:46;98595.02;;;-5.85;100.00
77881;BME280;67077;50.298;18.996;2023-12-04T03:55:13;98594.58;;;-5.86;100.00
77881;BME280;67077;50.298;18.996;2023-12-04T03:57:40;98596.25;;;-5.85;100.00
77881;BME280;67077;50.298;18.996;2023-12-04T04:00:06;98598.30;;;-5.84;100.00
77881;BME280;67077;50.298;18.996;2023-12-04T04:02:35;98603.39;;;-5.81;100.00
77881;BME280;67077;50.298;18.996;2023-12-04T04:05:02;98603.86;;;-5.78;100.00
77881;BME280;67077;50.298;18.996;2023-12-04T04:07:29;98608.05;;;-5.72;100.00
77881;BME280;67077;50.298;18.996;2023-12-04T04:09:56;98608.13;;;-5.69;100.00
77881;BME280;67077;50.298;18.996;2023-12-04T04:12:23;98607.92;;;-5.63;100.00
77881;BME280;67077;50.298;18.996;2023-12-04T04:14:49;98614.23;;;-5.55;100.00
77881;BME280;67077;50.298;18.996;2023-12-04T04:17:16;98614.58;;;-5.47;100.00
77881;BME280;67077;50.298;18.996;2023-12-04T04:19:43;98618.84;;;-5.38;100.00
77881;BME280;67077;50.298;18.996;2023-12-04T04:22:10;98614.04;;;-5.32;100.00
77881;BME280;67077;50.298;18.996;2023-12-04T04:24:37;98609.70;;;-5.25;100.00
77881;BME280;67077;50.298;18.996;2023-12-04T04:27:04;98606.73;;;-5.18;100.00
77881;BME280;67077;50.298;18.996;2023-12-04T04:29:31;98607.67;;;-5.09;100.00
77881;BME280;67077;50.298;18.996;2023-12-04T04:31:58;98608.31;;;-5.03;100.00
77881;BME280;67077;50.298;18.996;2023-12-04T04:34:25;98607.52;;;-4.97;100.00
77881;BME280;67077;50.298;18.996;2023-12-04T04:36:51;98607.25;;;-4.96;100.00
77881;BME280;67077;50.298;18.996;2023-12-04T04:39:18;98608.08;;;-4.93;100.00
77881;BME280;67077;50.298;18.996;2023-12-04T04:41:45;98607.30;;;-4.92;100.00
77881;BME280;67077;50.298;18.996;2023-12-04T04:44:11;98605.59;;;-4.92;100.00
77881;BME280;67077;50.298;18.996;2023-12-04T04:46:38;98604.73;;;-4.97;100.00
77881;BME280;67077;50.298;18.996;2023-12-04T04:49:05;98610.40;;;-5.01;100.00
77881;BME280;67077;50.298;18.996;2023-12-04T04:51:34;98614.62;;;-5.06;100.00
77881;BME280;67077;50.298;18.996;2023-12-04T04:54:01;98612.85;;;-5.08;100.00
77881;BME280;67077;50.298;18.996;2023-12-04T04:56:28;98613.04;;;-5.08;100.00
77881;BME280;67077;50.298;18.996;2023-12-04T04:58:56;98604.48;;;-5.14;100.00
77881;BME280;67077;50.298;18.996;2023-12-04T05:01:23;98606.56;;;-5.13;100.00
77881;BME280;67077;50.298;18.996;2023-12-04T05:03:50;98610.17;;;-5.15;100.00
77881;BME280;67077;50.298;18.996;2023-12-04T05:06:17;98606.73;;;-5.16;100.00
77881;BME280;67077;50.298;18.996;2023-12-04T05:08:43;98604.09;;;-5.23;100.00
77881;BME280;67077;50.298;18.996;2023-12-04T05:11:10;98598.67;;;-5.31;100.00
77881;BME280;67077;50.298;18.996;2023-12-04T05:13:37;98594.65;;;-5.33;100.00
77881;BME280;67077;50.298;18.996;2023-12-04T05:16:04;98595.23;;;-5.34;100.00
77881;BME280;67077;50.298;18.996;2023-12-04T05:18:31;98593.50;;;-5.40;100.00
77881;BME280;67077;50.298;18.996;2023-12-04T05:20:58;98586.77;;;-5.39;100.00
77881;BME280;67077;50.298;18.996;2023-12-04T05:23:25;98589.58;;;-5.36;100.00
77881;BME280;67077;50.298;18.996;2023-12-04T05:25:51;98589.80;;;-5.34;100.00
77881;BME280;67077;50.298;18.996;2023-12-04T05:28:18;98592.48;;;-5.35;100.00
77881;BME280;67077;50.298;18.996;2023-12-04T05:30:45;98594.08;;;-5.38;100.00
77881;BME280;67077;50.298;18.996;2023-12-04T05:33:12;98589.48;;;-5.43;100.00
77881;BME280;67077;50.298;18.996;2023-12-04T05:35:38;98587.42;;;-5.44;100.00
77881;BME280;67077;50.298;18.996;2023-12-04T05:38:05;98585.97;;;-5.46;100.00
77881;BME280;67077;50.298;18.996;2023-12-04T05:40:32;98589.55;;;-5.47;100.00
77881;BME280;67077;50.298;18.996;2023-12-04T05:42:59;98591.17;;;-5.49;100.00
77881;BME280;67077;50.298;18.996;2023-12-04T05:45:25;98589.90;;;-5.49;100.00
77881;BME280;67077;50.298;18.996;2023-12-04T05:47:52;98585.89;;;-5.47;100.00
77881;BME280;67077;50.298;18.996;2023-12-04T05:50:19;98579.05;;;-5.49;100.00
77881;BME280;67077;50.298;18.996;2023-12-04T05:52:46;98576.48;;;-5.53;100.00
77881;BME280;67077;50.298;18.996;2023-12-04T05:55:13;98573.45;;;-5.62;100.00
77881;BME280;67077;50.298;18.996;2023-12-04T05:57:39;98573.47;;;-5.73;100.00
77881;BME280;67077;50.298;18.996;2023-12-04T06:00:06;98573.64;;;-5.78;100.00
77881;BME280;67077;50.298;18.996;2023-12-04T06:02:39;98574.98;;;-5.76;100.00
77881;BME280;67077;50.298;18.996;2023-12-04T06:05:06;98575.64;;;-5.71;100.00
77881;BME280;67077;50.298;18.996;2023-12-04T06:07:34;98582.71;;;-5.67;100.00
77881;BME280;67077;50.298;18.996;2023-12-04T06:10:00;98577.82;;;-5.64;100.00
77881;BME280;67077;50.298;18.996;2023-12-04T06:12:27;98578.05;;;-5.62;100.00
77881;BME280;67077;50.298;18.996;2023-12-04T06:14:54;98573.28;;;-5.62;100.00
77881;BME280;67077;50.298;18.996;2023-12-04T06:17:20;98577.74;;;-5.61;100.00
77881;BME280;67077;50.298;18.996;2023-12-04T06:19:47;98580.86;;;-5.58;100.00
77881;BME280;67077;50.298;18.996;2023-12-04T06:22:14;98587.64;;;-5.54;100.00
77881;BME280;67077;50.298;18.996;2023-12-04T06:24:41;98588.88;;;-5.54;100.00
77881;BME280;67077;50.298;18.996;2023-12-04T06:27:08;98586.27;;;-5.57;100.00
77881;BME280;67077;50.298;18.996;2023-12-04T06:29:35;98587.59;;;-5.56;100.00
77881;BME280;67077;50.298;18.996;2023-12-04T06:32:02;98587.06;;;-5.61;100.00
77881;BME280;67077;50.298;18.996;2023-12-04T06:34:30;98587.91;;;-5.63;100.00
77881;BME280;67077;50.298;18.996;2023-12-04T06:36:57;98590.14;;;-5.64;100.00
77881;BME280;67077;50.298;18.996;2023-12-04T06:39:24;98585.20;;;-5.67;100.00
77881;BME280;67077;50.298;18.996;2023-12-04T06:41:51;98578.98;;;-5.68;100.00
77881;BME280;67077;50.298;18.996;2023-12-04T06:44:18;98572.95;;;-5.68;100.00
77881;BME280;67077;50.298;18.996;2023-12-04T06:46:45;98573.27;;;-5.64;100.00
77881;BME280;67077;50.298;18.996;2023-12-04T06:49:15;98580.19;;;-5.58;100.00
77881;BME280;67077;50.298;18.996;2023-12-04T06:51:43;98581.11;;;-5.59;100.00
77881;BME280;67077;50.298;18.996;2023-12-04T06:54:09;98576.65;;;-5.60;100.00
77881;BME280;67077;50.298;18.996;2023-12-04T06:56:37;98577.80;;;-5.61;100.00
77881;BME280;67077;50.298;18.996;2023-12-04T06:59:04;98581.98;;;-5.61;100.00
77881;BME280;67077;50.298;18.996;2023-12-04T07:01:30;98575.02;;;-5.57;100.00
77881;BME280;67077;50.298;18.996;2023-12-04T07:03:57;98575.92;;;-5.52;100.00
77881;BME280;67077;50.298;18.996;2023-12-04T07:06:24;98585.27;;;-5.45;100.00
77881;BME280;67077;50.298;18.996;2023-12-04T07:08:50;98583.48;;;-5.42;100.00
77881;BME280;67077;50.298;18.996;2023-12-04T07:11:17;98580.93;;;-5.44;100.00
77881;BME280;67077;50.298;18.996;2023-12-04T07:13:43;98579.20;;;-5.41;100.00
77881;BME280;67077;50.298;18.996;2023-12-04T07:16:10;98581.85;;;-5.34;100.00
77881;BME280;67077;50.298;18.996;2023-12-04T07:18:37;98590.27;;;-5.26;100.00
77881;BME280;67077;50.298;18.996;2023-12-04T07:21:04;98586.69;;;-5.28;100.00
77881;BME280;67077;50.298;18.996;2023-12-04T07:23:30;98586.14;;;-5.23;100.00
77881;BME280;67077;50.298;18.996;2023-12-04T07:25:57;98587.38;;;-5.20;100.00
77881;BME280;67077;50.298;18.996;2023-12-04T07:28:23;98592.40;;;-5.12;100.00
77881;BME280;67077;50.298;18.996;2023-12-04T07:30:50;98596.45;;;-5.02;100.00
77881;BME280;67077;50.298;18.996;2023-12-04T07:33:17;98596.23;;;-4.99;100.00
77881;BME280;67077;50.298;18.996;2023-12-04T07:35:44;98590.67;;;-4.97;100.00
77881;BME280;67077;50.298;18.996;2023-12-04T07:38:11;98591.08;;;-4.91;100.00
77881;BME280;67077;50.298;18.996;2023-12-04T07:40:37;98592.74;;;-4.85;100.00
77881;BME280;67077;50.298;18.996;2023-12-04T07:43:04;98587.38;;;-4.81;100.00
77881;BME280;67077;50.298;18.996;2023-12-04T07:45:30;98584.29;;;-4.80;100.00
77881;BME280;67077;50.298;18.996;2023-12-04T07:47:57;98585.42;;;-4.78;100.00
77881;BME280;67077;50.298;18.996;2023-12-04T07:50:24;98588.41;;;-4.68;100.00
77881;BME280;67077;50.298;18.996;2023-12-04T07:52:51;98586.14;;;-4.59;100.00
77881;BME280;67077;50.298;18.996;2023-12-04T07:55:18;98583.75;;;-4.55;100.00
77881;BME280;67077;50.298;18.996;2023-12-04T07:57:45;98585.11;;;-4.53;100.00
77881;BME280;67077;50.298;18.996;2023-12-04T08:00:11;98580.77;;;-4.46;100.00
77881;BME280;67077;50.298;18.996;2023-12-04T08:02:38;98579.95;;;-4.42;100.00
77881;BME280;67077;50.298;18.996;2023-12-04T08:05:05;98572.98;;;-4.41;100.00
77881;BME280;67077;50.298;18.996;2023-12-04T08:07:32;98569.95;;;-4.36;100.00
77881;BME280;67077;50.298;18.996;2023-12-04T08:09:59;98574.70;;;-4.28;100.00
77881;BME280;67077;50.298;18.996;2023-12-04T08:12:26;98578.45;;;-4.22;100.00
77881;BME280;67077;50.298;18.996;2023-12-04T08:14:54;98575.95;;;-4.17;100.00
77881;BME280;67077;50.298;18.996;2023-12-04T08:17:21;98574.22;;;-4.15;100.00
77881;BME280;67077;50.298;18.996;2023-12-04T08:19:48;98579.11;;;-4.09;100.00
77881;BME280;67077;50.298;18.996;2023-12-04T08:22:15;98578.39;;;-4.05;100.00
77881;BME280;67077;50.298;18.996;2023-12-04T08:24:41;98574.15;;;-4.04;100.00
77881;BME280;67077;50.298;18.996;2023-12-04T08:27:08;98576.73;;;-3.99;100.00
77881;BME280;67077;50.298;18.996;2023-12-04T08:29:35;98574.78;;;-3.92;100.00
77881;BME280;67077;50.298;18.996;2023-12-04T08:32:01;98576.98;;;-3.82;100.00
77881;BME280;67077;50.298;18.996;2023-12-04T08:34:28;98580.00;;;-3.68;100.00
77881;BME280;67077;50.298;18.996;2023-12-04T08:36:54;98581.73;;;-3.61;100.00
77881;BME280;67077;50.298;18.996;2023-12-04T08:39:21;98584.42;;;-3.55;100.00
77881;BME280;67077;50.298;18.996;2023-12-04T08:41:48;98583.55;;;-3.48;100.00
77881;BME280;67077;50.298;18.996;2023-12-04T08:44:15;98581.70;;;-3.40;100.00
77881;BME280;67077;50.298;18.996;2023-12-04T08:46:43;98587.33;;;-3.31;100.00
77881;BME280;67077;50.298;18.996;2023-12-04T08:49:10;98587.92;;;-3.23;100.00
77881;BME280;67077;50.298;18.996;2023-12-04T08:51:37;98583.72;;;-3.15;100.00
77881;BME280;67077;50.298;18.996;2023-12-04T08:54:03;98582.48;;;-3.08;100.00
77881;BME280;67077;50.298;18.996;2023-12-04T08:56:30;98581.02;;;-3.07;100.00
77881;BME280;67077;50.298;18.996;2023-12-04T08:58:57;98584.79;;;-3.06;100.00
77881;BME280;67077;50.298;18.996;2023-12-04T09:01:24;98588.48;;;-3.01;100.00
77881;BME280;67077;50.298;18.996;2023-12-04T09:03:51;98587.95;;;-2.97;100.00
77881;BME280;67077;50.298;18.996;2023-12-04T09:06:18;98585.50;;;-2.92;100.00
77881;BME280;67077;50.298;18.996;2023-12-04T09:08:45;98578.41;;;-2.85;100.00
77881;BME280;67077;50.298;18.996;2023-12-04T09:11:12;98576.27;;;-2.79;100.00
77881;BME280;67077;50.298;18.996;2023-12-04T09:13:38;98576.48;;;-2.75;100.00
77881;BME280;67077;50.298;18.996;2023-12-04T09:16:05;98574.95;;;-2.69;100.00
77881;BME280;67077;50.298;18.996;2023-12-04T09:18:32;98574.16;;;-2.63;100.00
77881;BME280;67077;50.298;18.996;2023-12-04T09:20:58;98569.75;;;-2.59;100.00
77881;BME280;67077;50.298;18.996;2023-12-04T09:23:25;98569.26;;;-2.57;100.00
77881;BME280;67077;50.298;18.996;2023-12-04T09:25:52;98565.83;;;-2.50;100.00
77881;BME280;67077;50.298;18.996;2023-12-04T09:28:18;98567.27;;;-2.40;100.00
77881;BME280;67077;50.298;18.996;2023-12-04T09:30:45;98560.93;;;-2.33;100.00
77881;BME280;67077;50.298;18.996;2023-12-04T09:33:11;98559.96;;;-2.30;100.00
77881;BME280;67077;50.298;18.996;2023-12-04T09:35:38;98558.69;;;-2.21;100.00
77881;BME280;67077;50.298;18.996;2023-12-04T09:38:05;98559.48;;;-2.12;100.00
77881;BME280;67077;50.298;18.996;2023-12-04T09:40:32;98555.97;;;-2.12;100.00
77881;BME280;67077;50.298;18.996;2023-12-04T09:42:59;98557.23;;;-2.08;100.00
77881;BME280;67077;50.298;18.996;2023-12-04T09:45:25;98548.36;;;-2.01;100.00
77881;BME280;67077;50.298;18.996;2023-12-04T09:47:52;98542.80;;;-1.98;100.00
77881;BME280;67077;50.298;18.996;2023-12-04T09:50:20;98542.88;;;-1.97;100.00
77881;BME280;67077;50.298;18.996;2023-12-04T09:52:49;98537.87;;;-1.96;100.00
77881;BME280;67077;50.298;18.996;2023-12-04T09:55:16;98538.89;;;-2.00;100.00
77881;BME280;67077;50.298;18.996;2023-12-04T09:57:44;98534.90;;;-2.05;100.00
77881;BME280;67077;50.298;18.996;2023-12-04T10:00:14;98533.69;;;-2.03;100.00
77881;BME280;67077;50.298;18.996;2023-12-04T10:02:41;98532.29;;;-1.99;100.00
77881;BME280;67077;50.298;18.996;2023-12-04T10:05:08;98533.69;;;-2.01;100.00
77881;BME280;67077;50.298;18.996;2023-12-04T10:07:35;98527.91;;;-2.00;100.00
77881;BME280;67077;50.298;18.996;2023-12-04T10:10:03;98523.30;;;-1.89;100.00
77881;BME280;67077;50.298;18.996;2023-12-04T10:12:32;98523.91;;;-1.82;100.00
77881;BME280;67077;50.298;18.996;2023-12-04T10:15:04;98515.17;;;-1.78;100.00
77881;BME280;67077;50.298;18.996;2023-12-04T10:17:38;98513.56;;;-1.74;100.00
77881;BME280;67077;50.298;18.996;2023-12-04T10:22:39;98506.22;;;-1.75;100.00
77881;BME280;67077;50.298;18.996;2023-12-04T10:25:13;98503.17;;;-1.75;100.00
77881;BME280;67077;50.298;18.996;2023-12-04T10:27:40;98497.61;;;-1.72;100.00
77881;BME280;67077;50.298;18.996;2023-12-04T10:30:07;98494.88;;;-1.68;100.00
77881;BME280;67077;50.298;18.996;2023-12-04T10:32:40;98498.45;;;-1.65;100.00
77881;BME280;67077;50.298;18.996;2023-12-04T10:35:10;98492.85;;;-1.59;100.00
77881;BME280;67077;50.298;18.996;2023-12-04T10:37:40;98491.23;;;-1.45;100.00
77881;BME280;67077;50.298;18.996;2023-12-04T10:40:06;98485.23;;;-1.37;100.00
77881;BME280;67077;50.298;18.996;2023-12-04T10:42:36;98481.89;;;-1.31;100.00
77881;BME280;67077;50.298;18.996;2023-12-04T10:45:03;98479.58;;;-1.31;100.00
77881;BME280;67077;50.298;18.996;2023-12-04T10:47:32;98472.36;;;-1.22;100.00
77881;BME280;67077;50.298;18.996;2023-12-04T10:50:02;98472.96;;;-1.12;100.00
77881;BME280;67077;50.298;18.996;2023-12-04T10:52:30;98470.70;;;-1.09;100.00
77881;BME280;67077;50.298;18.996;2023-12-04T10:54:58;98474.82;;;-1.07;100.00
77881;BME280;67077;50.298;18.996;2023-12-04T10:57:29;98472.95;;;-1.10;100.00
77881;BME280;67077;50.298;18.996;2023-12-04T11:00:01;98464.01;;;-1.07;100.00
77881;BME280;67077;50.298;18.996;2023-12-04T11:02:29;98460.44;;;-1.03;100.00
77881;BME280;67077;50.298;18.996;2023-12-04T11:05:01;98455.27;;;-0.97;100.00
77881;BME280;67077;50.298;18.996;2023-12-04T11:07:29;98451.27;;;-0.95;100.00
77881;BME280;67077;50.298;18.996;2023-12-04T11:09:57;98450.46;;;-0.96;100.00
77881;BME280;67077;50.298;18.996;2023-12-04T11:12:26;98453.48;;;-0.94;100.00
77881;BME280;67077;50.298;18.996;2023-12-04T11:14:56;98448.59;;;-0.95;100.00
77881;BME280;67077;50.298;18.996;2023-12-04T11:17:26;98440.71;;;-0.96;100.00
77881;BME280;67077;50.298;18.996;2023-12-04T11:20:16;98444.40;;;-0.98;100.00
77881;BME280;67077;50.298;18.996;2023-12-04T11:22:45;98444.88;;;-0.97;100.00
77881;BME280;67077;50.298;18.996;2023-12-04T11:25:12;98446.34;;;-1.03;100.00
77881;BME280;67077;50.298;18.996;2023-12-04T11:27:39;98441.16;;;-1.07;100.00
77881;BME280;67077;50.298;18.996;2023-12-04T11:30:07;98440.88;;;-1.07;100.00
77881;BME280;67077;50.298;18.996;2023-12-04T11:32:55;98440.67;;;-1.09;100.00
77881;BME280;67077;50.298;18.996;2023-12-04T11:35:25;98441.75;;;-1.09;100.00
77881;BME280;67077;50.298;18.996;2023-12-04T11:37:52;98439.70;;;-1.08;100.00
77881;BME280;67077;50.298;18.996;2023-12-04T11:40:19;98436.70;;;-1.04;100.00
77881;BME280;67077;50.298;18.996;2023-12-04T11:42:45;98436.45;;;-0.98;100.00
77881;BME280;67077;50.298;18.996;2023-12-04T11:45:18;98429.60;;;-0.94;100.00
77881;BME280;67077;50.298;18.996;2023-12-04T11:47:50;98423.96;;;-0.97;100.00
77881;BME280;67077;50.298;18.996;2023-12-04T11:50:18;98421.67;;;-1.01;100.00
77881;BME280;67077;50.298;18.996;2023-12-04T11:52:45;98420.08;;;-0.97;100.00
77881;BME280;67077;50.298;18.996;2023-12-04T11:55:15;98413.32;;;-0.94;100.00
77881;BME280;67077;50.298;18.996;2023-12-04T11:57:43;98411.14;;;-0.92;100.00
77881;BME280;67077;50.298;18.996;2023-12-04T12:00:11;98413.98;;;-0.84;100.00
77881;BME280;67077;50.298;18.996;2023-12-04T12:02:39;98415.28;;;-0.77;100.00
77881;BME280;67077;50.298;18.996;2023-12-04T12:05:07;98412.25;;;-0.73;100.00
77881;BME280;67077;50.298;18.996;2023-12-04T12:07:34;98407.77;;;-0.70;100.00
77881;BME280;67077;50.298;18.996;2023-12-04T12:10:01;98401.27;;;-0.67;100.00
77881;BME280;67077;50.298;18.996;2023-12-04T12:12:28;98398.84;;;-0.59;100.00
77881;BME280;67077;50.298;18.996;2023-12-04T12:14:56;98391.76;;;-0.56;100.00
77881;BME280;67077;50.298;18.996;2023-12-04T12:17:23;98385.77;;;-0.52;100.00
77881;BME280;67077;50.298;18.996;2023-12-04T12:19:51;98383.11;;;-0.54;100.00
77881;BME280;67077;50.298;18.996;2023-12-04T12:22:18;98376.37;;;-0.52;100.00
77881;BME280;67077;50.298;18.996;2023-12-04T12:24:45;98371.47;;;-0.49;100.00
77881;BME280;67077;50.298;18.996;2023-12-04T12:27:11;98367.90;;;-0.50;100.00
77881;BME280;67077;50.298;18.996;2023-12-04T12:29:38;98366.66;;;-0.50;100.00
77881;BME280;67077;50.298;18.996;2023-12-04T12:32:05;98361.71;;;-0.49;100.00
77881;BME280;67077;50.298;18.996;2023-12-04T12:34:32;98363.55;;;-0.53;100.00
77881;BME280;67077;50.298;18.996;2023-12-04T12:37:05;98360.33;;;-0.58;100.00
77881;BME280;67077;50.298;18.996;2023-12-04T12:39:32;98353.11;;;-0.67;100.00
77881;BME280;67077;50.298;18.996;2023-12-04T12:41:59;98351.61;;;-0.70;100.00
77881;BME280;67077;50.298;18.996;2023-12-04T12:44:26;98349.81;;;-0.73;100.00